Latest Weather Observations for PORTABLE QFRJ (North Tamborine)

IDQ60801

Issued at 2:52 pm EST Monday 23 September 2019 (issued every 10 minutes, with the page automatically refreshed every 10 minutes)

About weather observations | Map of weather stations | Latest weather observations for QLD | Other Formats
Station Details ID: 250074 Name: PORTABLE QFRJ (NORTH TAMBORINE) Lat: -27.94 Lon: 153.19 Height: 527.0 m
Data from the previous 72 hours. | See also: Recent months for locations in Queensland
Date/Time
EST
Temp
°C
App
Temp
°C
Dew
Point
°C
Rel
Hum
%
Delta-T
°C
Wind Press
QNH
hPa
Press
MSL
hPa
Rain since
9am
mm
Dir  Spd
km/h
Gust
km/h
Spd
kts
Gust
kts
23/02:40pm 25.6 22.3 9.4 36 9.1 WNW 17 20 9 11 - - 0.0
23/02:30pm 26.3 23.3 9.3 34 9.6 WNW 15 19 8 10 - - 0.0
23/02:20pm 25.9 23.8 9.8 36 9.1 WNW 11 19 6 10 - - 0.0
23/02:10pm 25.6 22.8 9.9 37 8.9 W 15 20 8 11 - - 0.0
23/02:00pm 25.9 23.7 9.4 35 9.3 WSW 11 17 6 9 - - 0.0
23/01:50pm 25.4 23.5 10.6 39 8.5 WNW 11 22 6 12 - - 0.0
23/01:40pm 25.5 23.6 10.6 39 8.5 W 11 15 6 8 - - 0.0
23/01:30pm 25.2 22.6 9.4 36 8.8 W 13 20 7 11 - - 0.0
23/01:20pm 24.8 22.3 9.8 38 8.4 W 13 17 7 9 - - 0.0
23/01:10pm 24.6 22.2 10.1 40 8.2 WNW 13 17 7 9 - - 0.0
23/01:00pm 24.2 20.6 10.0 40 8.0 W 19 26 10 14 - - 0.0
23/12:50pm 24.1 20.5 10.4 42 7.8 WNW 20 26 11 14 - - 0.0
23/12:40pm 24.0 21.7 10.3 42 7.7 W 13 19 7 10 - - 0.0
23/12:30pm 23.7 20.6 10.2 42 7.6 WNW 17 20 9 11 - - 0.0
23/12:20pm 23.5 20.9 10.6 44 7.3 W 15 17 8 9 - - 0.0
23/12:10pm 23.2 19.9 11.0 46 7.0 W 19 22 10 12 - - 0.0
23/12:00pm 23.0 20.1 10.9 46 6.9 W 17 19 9 10 - - 0.0
23/11:50am 22.6 19.4 11.8 50 6.2 W 20 24 11 13 - - 0.0
23/11:40am 22.4 18.9 10.8 47 6.6 W 20 24 11 13 - - 0.0
23/11:30am 22.3 19.0 10.8 48 6.5 W 19 24 10 13 - - 0.0
23/11:20am 22.2 18.7 11.0 49 6.3 WNW 20 26 11 14 - - 0.0
23/11:10am 21.6 17.8 11.0 51 6.0 WNW 22 26 12 14 - - 0.0
23/11:00am 21.3 17.6 11.6 54 5.5 W 22 28 12 15 - - 0.0
23/10:50am 20.9 17.6 11.5 55 5.3 WNW 20 28 11 15 - - 0.0
23/10:40am 20.6 17.0 12.0 57 4.9 WNW 22 26 12 14 - - 0.0
23/10:30am 20.2 16.8 12.6 61 4.4 W 22 26 12 14 - - 0.0
23/10:20am 19.9 16.5 12.6 63 4.2 WNW 22 28 12 15 - - 0.0
23/10:00am 19.5 16.7 13.3 67 3.6 W 20 26 11 14 - - 0.0
23/09:50am 19.1 15.6 12.2 64 3.9 WNW 22 24 12 13 - - 0.0
23/09:40am 18.7 15.7 12.6 67 3.5 WNW 20 24 11 13 - - 0.0
23/09:30am 18.4 15.0 12.5 68 3.4 WNW 22 26 12 14 - - 0.0
23/09:20am 18.3 15.0 12.7 70 3.2 WNW 22 26 12 14 - - 0.0
23/09:10am 18.2 16.1 13.5 74 2.7 WNW 17 20 9 11 - - 0.0
23/09:00am 18.0 15.4 13.3 74 2.7 W 19 22 10 12 - - 0.0
23/08:50am 18.1 16.0 13.6 75 2.6 WNW 17 19 9 10 - - 0.0
23/08:40am 17.5 15.0 13.5 77 2.3 NW 19 24 10 13 - - 0.0
23/08:30am 17.2 14.7 13.6 79 2.1 WNW 19 22 10 12 - - 0.0
23/08:20am 16.5 13.4 13.5 82 1.7 NW 22 26 12 14 - - 0.0
23/08:10am 16.3 13.2 13.5 83 1.6 NW 22 28 12 15 - - 0.0
23/08:00am 16.3 13.3 13.7 84 1.5 WNW 22 28 12 15 - - 0.0
23/07:50am 16.1 12.6 13.4 84 1.6 WNW 24 28 13 15 - - 0.0
23/07:40am 16.1 12.5 13.1 82 1.7 WNW 24 30 13 16 - - 0.0
23/07:30am 16.3 12.7 12.9 80 1.9 WNW 24 26 13 14 - - 0.0
23/07:20am 16.2 12.4 12.4 78 2.1 WNW 24 32 13 17 - - 0.0
23/07:10am 15.6 11.9 12.7 83 1.6 WNW 24 28 13 15 - - 0.0
23/07:00am 15.5 11.9 13.1 85 1.4 WNW 24 28 13 15 - - 0.0
23/06:50am 15.8 12.4 12.6 81 1.8 WNW 22 26 12 14 - - 0.0
23/06:40am 15.5 12.6 12.8 84 1.5 WNW 20 24 11 13 - - 0.0
23/06:30am 15.3 12.0 12.9 85 1.4 W 22 26 12 14 - - 0.0
23/06:20am 15.3 12.6 13.0 86 1.3 W 19 22 10 12 - - 0.0
23/06:10am 15.2 12.3 13.0 87 1.2 WNW 20 20 11 11 - - 0.0
23/06:00am 15.2 12.3 13.0 87 1.2 WNW 20 22 11 12 - - 0.0
23/05:50am 15.1 12.4 12.9 87 1.2 W 19 22 10 12 - - 0.0
23/05:40am 14.9 12.5 12.8 87 1.2 W 17 20 9 11 - - 0.0
23/05:30am 14.6 12.6 12.8 89 1.0 WNW 15 19 8 10 - - 0.0
23/05:20am 14.4 12.2 13.4 94 0.6 NW 17 19 9 10 - - 0.0
23/05:10am 14.4 12.7 13.6 95 0.5 WNW 15 19 8 10 - - 0.0
23/05:00am 14.5 12.9 13.8 96 0.4 NW 15 17 8 9 - - 0.0
23/04:50am 14.7 13.1 13.8 94 0.5 NW 15 19 8 10 - - 0.0
23/04:40am 14.8 12.8 13.8 94 0.6 NW 17 19 9 10 - - 0.0
23/04:30am 14.9 12.8 13.6 92 0.7 NW 17 19 9 10 - - 0.0
23/04:20am 14.8 13.0 13.4 91 0.8 NW 15 15 8 8 - - 0.0
23/04:10am 14.7 13.1 13.8 94 0.5 NW 15 19 8 10 - - 0.0
23/04:00am 14.8 13.2 14.0 95 0.5 NW 15 19 8 10 - - 0.0
23/03:50am 14.9 13.0 14.2 96 0.4 NW 17 19 9 10 - - 0.0
23/03:40am 15.0 13.1 14.3 96 0.4 NW 17 20 9 11 - - 0.0
23/03:30am 15.0 12.8 14.4 96 0.3 NW 19 20 10 11 - - 0.0
23/03:20am 15.1 13.3 14.5 96 0.4 NNW 17 19 9 10 - - 0.0
23/03:10am 15.2 13.1 14.6 96 0.4 NNW 19 22 10 12 - - 0.0
23/03:00am 15.4 13.4 14.9 97 0.3 NNW 19 26 10 14 - - 0.0
23/02:50am 15.4 13.8 14.9 97 0.3 NNW 17 22 9 12 - - 0.0
23/02:40am 15.5 13.9 14.9 96 0.4 NNW 17 20 9 11 - - 0.0
23/02:30am 15.6 13.4 14.9 96 0.4 NNW 20 24 11 13 - - 0.0
23/02:20am 15.7 13.5 14.9 95 0.5 NNW 20 26 11 14 - - 0.0
23/02:10am 15.6 13.3 14.6 94 0.6 NNW 20 22 11 12 - - 0.0
23/02:00am 15.5 14.1 14.5 94 0.6 NNW 15 20 8 11 - - 0.0
23/01:50am 15.6 14.2 14.6 94 0.6 NNW 15 20 8 11 - - 0.0
23/01:40am 15.5 13.8 14.6 94 0.5 NNW 17 22 9 12 - - 0.0
23/01:30am 15.6 13.4 14.8 95 0.5 NNW 20 24 11 13 - - 0.0
23/01:20am 15.6 13.5 14.7 94 0.5 NNW 19 24 10 13 - - 0.0
23/01:10am 15.6 13.9 14.7 94 0.5 NNW 17 22 9 12 - - 0.0
23/01:00am 15.6 13.9 14.8 95 0.5 NNW 17 24 9 13 - - 0.0
23/12:50am 15.6 13.0 14.8 95 0.5 NNW 22 30 12 16 - - 0.0
23/12:40am 15.6 13.5 14.8 95 0.5 NNW 19 22 10 12 - - 0.0
23/12:30am 15.6 13.3 14.7 94 0.5 NNW 20 26 11 14 - - 0.0
23/12:20am 15.6 13.5 14.6 94 0.6 NNW 19 22 10 12 - - 0.0
23/12:10am 15.6 13.5 14.6 94 0.6 NNW 19 26 10 14 - - 0.0
23/12:00am 15.7 14.0 14.8 94 0.5 NNW 17 20 9 11 - - 0.0
 
Date/Time
EST
Temp
°C
App
Temp
°C
Dew
Point
°C
Rel
Hum
%
Delta-T
°C
Wind Press
QNH
hPa
Press
MSL
hPa
Rain since
9am
mm
Dir  Spd
km/h
Gust
km/h
Spd
kts
Gust
kts
22/11:50pm 15.7 14.4 14.9 95 0.5 NNW 15 20 8 11 - - 0.0
22/11:40pm 15.8 14.2 14.9 94 0.5 NNW 17 20 9 11 - - 0.0
22/11:30pm 15.7 14.0 14.8 94 0.5 NNW 17 20 9 11 - - 0.0
22/11:20pm 15.6 13.9 14.7 94 0.5 NNW 17 19 9 10 - - 0.0
22/11:10pm 15.7 14.0 14.7 94 0.6 NNW 17 20 9 11 - - 0.0
22/11:00pm 15.7 14.0 14.8 94 0.5 NNW 17 20 9 11 - - 0.0
22/10:50pm 15.7 13.6 14.8 94 0.5 NNW 19 20 10 11 - - 0.0
22/10:40pm 15.7 14.0 14.7 94 0.6 NNW 17 22 9 12 - - 0.0
22/10:30pm 15.7 14.0 14.7 94 0.6 NNW 17 22 9 12 - - 0.0
22/10:20pm 15.6 13.5 14.8 95 0.5 NNW 19 20 10 11 - - 0.0
22/10:10pm 15.6 14.3 14.8 95 0.5 NNW 15 19 8 10 - - 0.0
22/10:00pm 15.7 14.1 14.9 95 0.5 NNW 17 19 9 10 - - 0.0
22/09:50pm 15.7 14.1 14.9 95 0.5 NNW 17 20 9 11 - - 0.0
22/09:40pm 15.6 15.1 14.9 96 0.4 N 11 15 6 8 - - 0.0
22/09:30pm 15.6 15.4 14.8 95 0.5 N 9 13 5 7 - - 0.0
22/09:20pm 15.6 15.4 14.7 94 0.5 N 9 15 5 8 - - 0.0
22/09:10pm 15.5 15.3 14.6 94 0.5 N 9 11 5 6 - - 0.0
22/09:00pm 15.4 15.6 14.3 93 0.6 N 6 11 3 6 - - 0.0
22/08:50pm 15.4 15.7 14.4 94 0.6 N 6 7 3 4 - - 0.0
22/08:40pm 15.5 15.8 14.5 94 0.6 N 6 9 3 5 - - 0.0
22/08:30pm 15.6 15.9 14.4 93 0.7 N 6 11 3 6 - - 0.0
22/08:20pm 15.7 16.0 14.4 92 0.8 NNE 6 7 3 4 - - 0.0
22/08:10pm 15.8 16.0 14.2 90 0.9 NNE 6 9 3 5 - - 0.0
22/08:00pm 15.8 15.9 13.9 88 1.1 N 6 7 3 4 - - 0.0
22/07:50pm 15.9 16.1 13.1 83 1.6 NNE 4 6 2 3 - - 0.0
22/07:40pm 15.9 15.6 12.6 81 1.9 NNE 6 7 3 4 - - 0.0
22/07:30pm 16.0 15.8 13.0 82 1.7 NNE 6 9 3 5 - - 0.0
22/07:20pm 16.1 16.0 13.4 84 1.6 NE 6 6 3 3 - - 0.0
22/07:10pm 16.2 16.1 13.4 83 1.6 ENE 6 7 3 4 - - 0.0
22/07:00pm 16.4 16.3 13.2 81 1.8 ENE 6 7 3 4 - - 0.0
22/06:50pm 16.6 16.4 13.0 79 2.1 NE 6 9 3 5 - - 0.0
22/06:40pm 16.8 16.9 12.7 77 2.3 NNE 4 7 2 4 - - 0.0
22/06:30pm 16.9 16.5 12.5 75 2.5 NE 6 9 3 5 - - 0.0
22/06:20pm 17.1 17.2 12.6 75 2.6 NNE 4 7 2 4 - - 0.0
22/06:10pm 17.3 17.4 12.8 75 2.6 ENE 4 6 2 3 - - 0.0
22/06:00pm 17.5 17.2 12.8 74 2.7 ENE 6 7 3 4 - - 0.0
22/05:50pm 17.9 17.6 12.7 71 3.0 NE 6 9 3 5 - - 0.0
22/05:40pm 18.2 18.6 12.5 69 3.3 NE 2 6 1 3 - - 0.0
22/05:30pm 18.5 17.9 12.3 67 3.5 NE 7 9 4 5 - - 0.0
22/05:20pm 18.8 18.2 12.2 65 3.8 E 7 9 4 5 - - 0.0
22/05:10pm 19.2 18.9 12.6 65 3.8 ENE 6 9 3 5 - - 0.0
22/05:00pm 19.4 18.5 12.7 65 3.9 NE 9 11 5 6 - - 0.0
22/04:50pm 19.7 18.9 12.9 65 3.9 NE 9 11 5 6 - - 0.0
22/04:40pm 20.1 19.9 13.5 66 3.9 ENE 7 9 4 5 - - 0.0
22/04:30pm 20.5 20.5 13.6 64 4.1 NE 6 11 3 6 - - 0.0
22/04:20pm 20.6 19.6 13.4 63 4.2 NE 11 17 6 9 - - 0.0
22/04:10pm 21.1 20.9 13.6 62 4.4 NE 7 9 4 5 - - 0.0
22/04:00pm 21.8 21.7 13.3 58 5.0 NE 6 11 3 6 - - 0.0
22/03:50pm 21.8 21.4 13.0 57 5.2 NE 7 9 4 5 - - 0.0
22/03:40pm 21.8 21.0 12.9 57 5.2 ENE 9 13 5 7 - - 0.0
22/03:30pm 22.5 22.2 12.7 54 5.7 NE 6 9 3 5 - - 0.0
22/03:20pm 22.8 23.1 13.5 55 5.5 NNE 4 7 2 4 - - 0.0
22/03:10pm 22.5 22.2 12.6 53 5.8 NE 6 11 3 6 - - 0.0
22/03:00pm 22.5 22.0 12.6 53 5.8 NE 7 11 4 6 - - 0.0
22/02:50pm 22.7 21.9 12.8 53 5.8 NE 9 11 5 6 - - 0.0
22/02:40pm 23.2 22.4 11.2 46 6.9 N 6 9 3 5 - - 0.0
22/02:30pm 23.3 22.9 13.0 52 6.1 NNW 7 9 4 5 - - 0.0
22/02:20pm 23.3 22.4 11.4 47 6.8 N 7 11 4 6 - - 0.0
22/02:10pm 22.9 21.6 11.3 48 6.6 NNW 9 15 5 8 - - 0.0
22/02:00pm 23.2 21.9 11.4 47 6.8 NNW 9 13 5 7 - - 0.0
22/01:50pm 23.2 23.0 12.9 52 6.1 N 6 11 3 6 - - 0.0
22/01:40pm 22.9 22.4 12.2 51 6.2 NNW 6 9 3 5 - - 0.0
22/01:30pm 21.8 21.2 12.3 54 5.5 N 7 17 4 9 - - 0.0
22/01:20pm 22.2 21.1 11.9 52 5.9 NW 9 17 5 9 - - 0.0
22/01:10pm 21.8 20.8 12.2 54 5.5 N 9 11 5 6 - - 0.0
22/01:00pm 21.7 21.0 11.3 51 5.9 NW 6 9 3 5 - - 0.0
22/12:50pm 21.1 19.3 12.2 56 5.1 NW 13 15 7 8 - - 0.0
22/12:40pm 21.2 19.8 12.3 57 5.1 N 11 17 6 9 - - 0.0
22/12:30pm 21.3 20.3 12.2 56 5.2 WNW 9 15 5 8 - - 0.0
22/12:20pm 21.4 20.1 12.6 57 5.1 NW 11 17 6 9 - - 0.0
22/12:10pm 21.1 20.3 12.9 59 4.8 NNW 9 15 5 8 - - 0.0
22/12:00pm 20.7 19.9 13.0 61 4.5 NNW 9 13 5 7 - - 0.0
22/11:50am 20.1 19.5 13.4 65 3.9 N 9 19 5 10 - - 0.0
22/11:40am 20.1 18.5 12.7 62 4.3 NW 13 19 7 10 - - 0.0
22/11:30am 19.5 18.3 14.1 71 3.2 NW 13 19 7 10 - - 0.0
22/11:20am 19.7 18.2 14.1 70 3.3 NNW 15 17 8 9 - - 0.0
22/11:10am 19.5 18.0 14.2 71 3.1 NNW 15 19 8 10 - - 0.0
22/11:00am 19.3 18.8 14.8 75 2.7 NNW 11 13 6 7 - - 0.0
22/10:50am 18.3 16.9 14.5 78 2.2 NW 15 19 8 10 - - 0.0
22/10:40am 18.3 16.2 14.8 80 2.1 NW 19 24 10 13 - - 0.0
22/10:30am 18.7 16.4 14.7 77 2.4 NW 20 24 11 13 - - 0.0
22/10:20am 18.2 16.9 15.7 85 1.5 NNW 17 20 9 11 - - 0.0
22/10:10am 18.1 16.7 15.6 85 1.5 NNW 17 24 9 13 - - 0.0
22/10:00am 17.4 16.0 15.5 89 1.1 NNW 17 20 9 11 - - 0.0
22/09:50am 17.1 15.8 15.7 91 0.8 NNW 17 20 9 11 - - 0.0
22/09:40am 16.7 15.0 15.7 94 0.6 NW 19 22 10 12 - - 0.0
22/09:30am 16.1 14.3 15.4 96 0.4 NNW 19 24 10 13 - - 0.0
22/09:20am 15.9 14.4 15.4 97 0.3 NW 17 20 9 11 - - 0.0
22/09:10am 16.0 15.4 15.6 97 0.2 NNW 13 22 7 12 - - 0.0
22/09:00am 15.9 16.0 15.6 98 0.2 N 9 13 5 7 - - 5.4
22/08:50am 15.8 15.1 15.5 98 0.2 NW 13 15 7 8 - - 5.4
22/08:40am 15.8 15.2 15.6 99 0.1 NNW 13 20 7 11 - - 5.4
22/08:30am 15.7 15.0 15.5 99 0.1 NNW 13 17 7 9 - - 5.4
22/08:20am 15.9 15.7 15.7 99 0.1 N 11 17 6 9 - - 5.0
22/08:10am 15.8 15.6 15.6 99 0.1 NNW 11 17 6 9 - - 5.0
22/08:00am 15.8 15.6 15.6 99 0.1 NNW 11 15 6 8 - - 5.0
22/07:50am 15.5 15.1 15.3 99 0.1 N 11 15 6 8 - - 5.0
22/07:40am 15.4 15.4 15.2 99 0.1 NNW 9 13 5 7 - - 5.0
22/07:30am 15.3 15.6 15.1 99 0.1 N 7 11 4 6 - - 3.8
22/07:20am 15.2 16.1 15.0 99 0.1 NNE 4 7 2 4 - - 3.0
22/07:10am 15.0 15.2 14.8 99 0.1 NE 7 11 4 6 - - 3.0
22/07:00am 14.9 15.3 14.7 99 0.1 N 6 9 3 5 - - 2.6
22/06:50am 14.9 14.7 14.6 98 0.2 N 9 13 5 7 - - 2.6
22/06:40am 15.0 15.2 14.8 99 0.1 N 7 11 4 6 - - 2.4
22/06:30am 14.9 15.3 14.7 99 0.1 N 6 9 3 5 - - 2.4
22/06:20am 14.8 14.6 14.6 99 0.1 N 9 13 5 7 - - 2.4
22/06:10am 14.8 15.0 14.6 99 0.1 N 7 11 4 6 - - 2.4
22/06:00am 14.8 14.9 14.5 98 0.2 N 7 9 4 5 - - 2.4
22/05:50am 14.9 15.2 14.6 98 0.2 NNE 6 9 3 5 - - 2.4
22/05:40am 15.1 15.5 14.8 98 0.2 NNE 6 7 3 4 - - 2.4
22/05:30am 15.2 15.7 14.9 98 0.2 N 6 7 3 4 - - 2.2
22/05:20am 15.3 15.8 15.0 98 0.2 N 6 11 3 6 - - 2.2
22/05:10am 15.5 16.4 15.1 97 0.2 NE 4 6 2 3 - - 2.0
22/05:00am 15.5 16.8 15.1 97 0.2 NNE 2 4 1 2 - - 1.8
22/04:50am 15.5 16.4 15.1 97 0.2 NNE 4 7 2 4 - - 1.8
22/04:40am 15.5 16.4 15.2 98 0.2 NNE 4 6 2 3 - - 1.8
22/04:30am 15.5 16.1 15.2 98 0.2 N 6 7 3 4 - - 1.8
22/04:20am 15.6 16.2 15.2 97 0.2 N 6 7 3 4 - - 1.8
22/04:10am 15.7 16.3 15.3 97 0.2 N 6 11 3 6 - - 1.8
22/04:00am 15.7 16.7 15.3 97 0.2 N 4 7 2 4 - - 1.8
22/03:50am 15.6 16.6 15.3 98 0.2 N 4 7 2 4 - - 1.8
22/03:40am 15.6 16.2 15.2 97 0.2 NNE 6 7 3 4 - - 1.8
22/03:30am 15.7 16.7 15.3 97 0.2 N 4 6 2 3 - - 1.4
22/03:20am 15.6 16.2 15.3 98 0.2 N 6 7 3 4 - - 1.0
22/03:10am 15.7 16.7 15.3 97 0.2 N 4 7 2 4 - - 1.0
22/03:00am 15.7 16.3 15.3 97 0.2 N 6 7 3 4 - - 1.0
22/02:50am 15.7 16.3 15.3 97 0.2 N 6 7 3 4 - - 1.0
22/02:40am 15.7 16.7 15.3 97 0.2 N 4 7 2 4 - - 1.0
22/02:30am 15.7 16.3 15.3 97 0.2 N 6 9 3 5 - - 1.0
22/02:20am 15.7 16.7 15.3 97 0.2 N 4 6 2 3 - - 1.0
22/02:10am 15.7 16.3 15.3 97 0.2 N 6 6 3 3 - - 1.0
22/02:00am 15.7 16.7 15.3 97 0.2 NNE 4 7 2 4 - - 1.0
22/01:50am 15.7 16.7 15.3 97 0.2 N 4 9 2 5 - - 1.0
22/01:40am 15.7 16.7 15.3 97 0.2 NNE 4 6 2 3 - - 1.0
22/01:30am 15.8 16.8 15.3 97 0.3 NNE 4 7 2 4 - - 1.0
22/01:20am 15.8 16.8 15.3 97 0.3 NE 4 6 2 3 - - 1.0
22/01:10am 15.8 16.8 15.3 97 0.3 NNE 4 6 2 3 - - 1.0
22/01:00am 15.8 16.4 15.3 97 0.3 NNE 6 9 3 5 - - 1.0
22/12:50am 15.9 16.9 15.3 96 0.4 NNE 4 7 2 4 - - 1.0
22/12:40am 15.9 16.3 15.3 96 0.4 NE 7 11 4 6 - - 1.0
22/12:30am 15.8 16.7 15.2 96 0.4 NE 4 7 2 4 - - 0.8
22/12:20am 15.8 16.3 15.1 96 0.4 ENE 6 13 3 7 - - 0.8
22/12:10am 15.8 16.7 15.0 95 0.5 ENE 4 6 2 3 - - 0.8
22/12:00am 15.8 16.1 15.0 95 0.5 ENE 7 11 4 6 - - 0.8
 
Date/Time
EST
Temp
°C
App
Temp
°C
Dew
Point
°C
Rel
Hum
%
Delta-T
°C
Wind Press
QNH
hPa
Press
MSL
hPa
Rain since
9am
mm
Dir  Spd
km/h
Gust
km/h
Spd
kts
Gust
kts
21/11:50pm 15.8 16.1 15.0 95 0.5 NE 7 9 4 5 - - 0.8
21/11:40pm 15.7 16.2 14.9 95 0.5 NNE 6 9 3 5 - - 0.8
21/11:30pm 15.7 16.0 14.9 95 0.5 NE 7 9 4 5 - - 0.8
21/11:20pm 15.7 16.0 14.9 95 0.5 NE 7 9 4 5 - - 0.8
21/11:10pm 15.7 15.9 14.8 94 0.5 NE 7 11 4 6 - - 0.8
21/11:00pm 15.6 15.8 14.8 95 0.5 NE 7 9 4 5 - - 0.8
21/10:50pm 15.6 15.8 14.8 95 0.5 NE 7 13 4 7 - - 0.8
21/10:40pm 15.7 16.0 14.9 95 0.5 NE 7 11 4 6 - - 0.8
21/10:30pm 15.7 15.6 15.0 96 0.4 NE 9 11 5 6 - - 0.8
21/10:20pm 15.7 15.6 15.0 96 0.4 NE 9 15 5 8 - - 0.8
21/10:10pm 15.8 15.4 15.1 96 0.4 NE 11 13 6 7 - - 0.8
21/10:00pm 15.8 15.4 15.1 96 0.4 NE 11 13 6 7 - - 0.8
21/09:50pm 15.8 15.0 15.1 96 0.4 ENE 13 17 7 9 - - 0.8
21/09:40pm 15.8 15.4 15.2 96 0.4 ENE 11 15 6 8 - - 0.8
21/09:30pm 15.9 15.5 15.2 96 0.4 ENE 11 15 6 8 - - 0.8
21/09:20pm 15.9 14.7 15.1 95 0.5 ENE 15 15 8 8 - - 0.8
21/09:10pm 15.9 15.1 15.0 94 0.5 ENE 13 17 7 9 - - 0.8
21/09:00pm 15.8 14.5 14.9 94 0.5 ENE 15 17 8 9 - - 0.8
21/08:50pm 15.8 14.9 14.9 94 0.5 ENE 13 17 7 9 - - 0.8
21/08:40pm 15.8 15.3 15.0 95 0.5 ENE 11 13 6 7 - - 0.8
21/08:30pm 15.8 15.3 15.0 95 0.5 ENE 11 15 6 8 - - 0.8
21/08:20pm 15.8 15.0 15.0 95 0.5 ENE 13 17 7 9 - - 0.8
21/08:10pm 15.7 15.2 15.0 96 0.4 ENE 11 15 6 8 - - 0.8
21/08:00pm 15.7 15.2 14.9 95 0.5 ENE 11 15 6 8 - - 0.8
21/07:50pm 15.6 14.7 14.9 96 0.4 ENE 13 17 7 9 - - 0.8
21/07:40pm 15.6 14.7 14.9 96 0.4 ENE 13 17 7 9 - - 0.8
21/07:30pm 15.6 14.8 15.0 96 0.4 ENE 13 15 7 8 - - 0.8
21/07:20pm 15.6 14.8 15.1 97 0.3 ENE 13 17 7 9 - - 0.8
21/07:10pm 15.7 14.9 15.1 96 0.4 ENE 13 15 7 8 - - 0.8
21/07:00pm 15.9 15.2 15.3 96 0.4 ENE 13 19 7 10 - - 0.8
21/06:50pm 15.9 15.2 15.3 96 0.4 ENE 13 19 7 10 - - 0.8
21/06:40pm 16.0 15.7 15.4 96 0.4 E 11 17 6 9 - - 0.8
21/06:30pm 16.0 15.3 15.3 96 0.4 E 13 17 7 9 - - 0.8
21/06:20pm 16.0 15.2 15.2 95 0.5 E 13 15 7 8 - - 0.8
21/06:10pm 16.1 15.3 15.0 93 0.7 E 13 15 7 8 - - 0.8
21/06:00pm 16.2 15.3 14.8 91 0.8 E 13 15 7 8 - - 0.8
21/05:50pm 16.4 15.8 14.7 90 1.0 E 11 13 6 7 - - 0.8
21/05:40pm 16.7 16.1 14.6 87 1.2 E 11 13 6 7 - - 0.8
21/05:30pm 17.0 15.6 14.6 86 1.4 E 15 19 8 10 - - 0.8
21/05:20pm 17.3 16.7 14.6 84 1.6 E 11 17 6 9 - - 0.8
21/05:10pm 17.7 17.0 14.3 80 2.0 E 11 17 6 9 - - 0.8
21/05:00pm 17.9 16.8 14.4 80 2.1 E 13 17 7 9 - - 0.8
21/04:50pm 18.1 16.6 14.3 78 2.2 E 15 19 8 10 - - 0.8
21/04:40pm 18.5 17.4 14.2 76 2.5 ENE 13 15 7 8 - - 0.8
21/04:30pm 19.0 17.9 14.3 74 2.8 ENE 13 15 7 8 - - 0.8
21/04:20pm 19.6 17.7 10.6 56 5.0 NE 11 17 6 9 - - 0.8
21/04:10pm 19.6 17.2 10.2 54 5.2 ENE 13 19 7 10 - - 0.8
21/04:00pm 20.0 18.0 10.1 53 5.5 ENE 11 19 6 10 - - 0.8
21/03:50pm 20.0 17.6 10.2 53 5.4 NE 13 15 7 8 - - 0.8
21/03:40pm 20.0 17.1 9.7 51 5.6 NE 15 19 8 10 - - 0.8
21/03:30pm 20.1 17.7 9.9 52 5.6 NE 13 17 7 9 - - 0.8
21/03:20pm 20.2 18.1 9.6 50 5.8 NE 11 20 6 11 - - 0.8
21/03:10pm 20.1 17.7 9.9 52 5.6 NE 13 19 7 10 - - 0.8
21/03:00pm 20.3 18.0 10.4 53 5.5 NE 13 17 7 9 - - 0.8
21/02:50pm 20.8 19.0 11.0 53 5.5 NE 11 15 6 8 - - 0.8
21/02:40pm 20.7 19.1 11.5 55 5.2 NE 11 15 6 8 - - 0.8
21/02:30pm 20.6 18.6 11.4 55 5.2 NE 13 19 7 10 - - 0.8
21/02:20pm 20.5 17.9 10.7 53 5.5 ENE 15 19 8 10 - - 0.8
21/02:10pm 20.1 17.9 10.9 55 5.2 NE 13 20 7 11 - - 0.8
21/02:00pm 20.4 18.3 11.3 56 5.1 NE 13 17 7 9 - - 0.8
21/01:50pm 20.4 17.9 10.9 54 5.3 ENE 15 19 8 10 - - 0.8
21/01:40pm 20.2 18.2 11.4 57 5.0 NE 13 19 7 10 - - 0.8
21/01:30pm 20.0 17.5 10.9 55 5.1 ENE 15 19 8 10 - - 0.8
21/01:20pm 20.1 18.0 11.3 57 5.0 ENE 13 17 7 9 - - 0.8
21/01:10pm 19.9 17.8 11.3 57 4.8 ENE 13 19 7 10 - - 0.8
21/01:00pm 19.7 17.8 11.8 60 4.5 ENE 13 20 7 11 - - 0.8
21/12:50pm 19.9 18.3 11.7 59 4.7 ENE 11 19 6 10 - - 0.8
21/12:40pm 19.0 18.7 15.5 80 2.1 E 11 15 6 8 - - 0.8
21/12:30pm 19.1 18.6 15.9 82 1.9 E 13 17 7 9 - - 0.8
21/12:20pm 19.6 19.5 16.1 80 2.1 ENE 11 19 6 10 - - 0.8
21/12:10pm 18.8 19.3 15.6 82 1.9 E 7 11 4 6 - - 0.8
21/12:00pm 17.9 17.7 15.7 87 1.3 E 11 15 6 8 - - 0.8
21/11:50am 17.9 18.2 16.0 89 1.2 E 9 13 5 7 - - 0.8
21/11:40am 17.3 17.2 16.1 93 0.7 E 11 15 6 8 - - 0.8
21/11:30am 17.7 17.8 16.4 92 0.8 E 11 15 6 8 - - 0.8
21/11:20am 17.9 18.6 17.0 94 0.6 E 9 11 5 6 - - 0.8
21/11:10am 17.4 18.0 16.9 97 0.3 ENE 9 13 5 7 - - 0.8
21/11:00am 16.8 16.8 16.3 97 0.3 E 11 13 6 7 - - 0.8
21/10:50am 16.4 16.2 15.8 96 0.4 E 11 13 6 7 - - 0.8
21/10:40am 16.3 16.0 15.5 95 0.5 E 11 13 6 7 - - 0.8
21/10:30am 16.5 16.6 15.5 94 0.6 E 9 13 5 7 - - 0.6
21/10:20am 16.9 16.3 15.7 93 0.7 - 13 15 7 8 - - 0.0
21/10:10am 17.2 16.5 15.5 90 1.0 E 13 15 7 8 - - 0.0
21/10:00am 17.5 16.8 15.4 87 1.3 - 13 15 7 8 - - 0.0
21/09:50am 17.7 17.6 15.0 84 1.6 E 9 13 5 7 - - 0.0
21/09:40am 17.9 17.7 14.8 82 1.8 ENE 9 15 5 8 - - 0.0
21/09:30am 17.8 17.3 13.7 77 2.4 NE 9 13 5 7 - - 0.0
21/09:20am 18.4 18.0 14.0 75 2.6 NE 9 13 5 7 - - 0.0
21/09:10am 18.0 18.1 14.4 79 2.1 ENE 7 11 4 6 - - 0.0
21/09:00am 17.7 16.9 14.1 79 2.1 ENE 11 15 6 8 - - 0.0
21/08:50am 17.7 17.3 14.0 79 2.2 NE 9 15 5 8 - - 0.0
21/08:40am 17.1 16.6 13.9 81 1.9 NE 9 13 5 7 - - 0.0
21/08:30am 17.1 17.3 14.2 83 1.7 NNE 6 9 3 5 - - 0.0
21/08:20am 16.5 16.7 14.7 89 1.1 NE 7 13 4 7 - - 0.0
21/08:10am 16.1 16.1 15.1 94 0.6 ENE 9 15 5 8 - - 0.0
21/08:00am 15.9 16.6 15.5 97 0.2 ENE 6 11 3 6 - - 0.0
21/07:50am 15.8 16.0 15.7 99 0.1 ENE 9 13 5 7 - - 0.0
21/07:40am 15.8 16.0 15.7 99 0.1 ENE 9 20 5 11 - - 0.0
21/07:30am 15.6 15.7 15.6 100 0.0 NE 9 11 5 6 - - 0.0
21/07:20am 15.5 15.2 15.5 100 0.0 NE 11 15 6 8 - - 0.0
21/07:10am 15.4 15.1 15.4 100 0.0 NE 11 13 6 7 - - 0.0
21/07:00am 15.4 15.5 15.4 100 0.0 NE 9 13 5 7 - - 0.0
21/06:50am 15.5 15.6 15.5 100 0.0 ENE 9 15 5 8 - - 0.0
21/06:40am 15.3 14.9 15.3 100 0.0 ENE 11 15 6 8 - - 0.0
21/06:30am 15.2 14.8 15.2 100 0.0 ENE 11 15 6 8 - - 0.0
21/06:20am 15.2 15.2 15.2 100 0.0 ENE 9 11 5 6 - - 0.0
21/06:10am 15.2 15.2 15.2 100 0.0 ENE 9 13 5 7 - - 0.0
21/06:00am 15.2 15.5 15.1 99 0.1 ENE 7 9 4 5 - - 0.0
21/05:50am 15.0 14.5 15.0 100 0.0 ENE 11 13 6 7 - - 0.0
21/05:40am 15.2 15.6 15.2 100 0.0 ENE 7 11 4 6 - - 0.0
21/05:30am 15.1 15.1 15.1 100 0.0 ENE 9 13 5 7 - - 0.0
21/05:20am 15.1 15.1 15.1 100 0.0 ENE 9 11 5 6 - - 0.0
21/05:10am 15.0 15.3 15.0 100 0.0 ENE 7 9 4 5 - - 0.0
21/05:00am 14.9 15.2 14.9 100 0.0 ENE 7 9 4 5 - - 0.0
21/04:50am 14.8 15.0 14.8 100 0.0 ENE 7 9 4 5 - - 0.0
21/04:40am 14.6 14.7 14.5 99 0.1 ENE 7 9 4 5 - - 0.0
21/04:30am 14.4 14.1 14.4 100 0.0 ENE 9 11 5 6 - - 0.0
21/04:20am 14.2 14.2 14.2 100 0.0 ENE 7 9 4 5 - - 0.0
21/04:10am 14.2 14.2 14.2 100 0.0 ENE 7 11 4 6 - - 0.0
21/04:00am 14.3 14.3 14.2 99 0.1 ENE 7 9 4 5 - - 0.0
21/03:50am 14.3 14.3 14.2 99 0.1 ENE 7 9 4 5 - - 0.0
21/03:40am 14.2 14.2 14.1 99 0.1 ENE 7 9 4 5 - - 0.0
21/03:30am 14.2 14.2 14.1 99 0.1 ENE 7 9 4 5 - - 0.0
21/03:20am 14.4 14.6 14.3 99 0.1 ENE 6 7 3 4 - - 0.0
21/03:10am 14.5 14.8 14.5 100 0.0 NE 6 7 3 4 - - 0.0
21/03:00am 14.6 15.3 14.6 100 0.0 ENE 4 6 2 3 - - 0.0
21/02:50am 14.7 15.0 14.6 99 0.1 NE 6 7 3 4 - - 0.0
21/02:40am 14.8 15.0 14.7 99 0.1 ENE 7 11 4 6 - - 0.0
21/02:30am 14.9 14.8 14.9 100 0.0 ENE 9 13 5 7 - - 0.0
21/02:20am 14.9 14.7 14.8 99 0.1 ENE 9 11 5 6 - - 0.0
21/02:10am 15.0 14.9 14.9 99 0.1 ENE 9 15 5 8 - - 0.0
21/02:00am 15.1 14.6 15.0 99 0.1 ENE 11 15 6 8 - - 0.0
21/01:50am 15.3 14.9 15.2 99 0.1 ENE 11 15 6 8 - - 0.0
21/01:40am 15.2 15.1 15.0 99 0.1 E 9 19 5 10 - - 0.0
21/01:30am 15.2 15.2 15.1 99 0.1 ENE 9 11 5 6 - - 0.0
21/01:20am 15.3 15.3 15.1 99 0.1 ENE 9 15 5 8 - - 0.0
21/01:10am 15.3 14.9 15.2 99 0.1 E 11 15 6 8 - - 0.0
21/01:00am 15.3 15.3 15.2 99 0.1 E 9 13 5 7 - - 0.0
21/12:50am 15.3 14.5 15.1 99 0.1 E 13 17 7 9 - - 0.0
21/12:40am 15.2 14.4 15.0 99 0.1 ENE 13 17 7 9 - - 0.0
21/12:30am 15.2 14.8 15.1 99 0.1 E 11 17 6 9 - - 0.0
21/12:20am 15.3 14.5 15.1 99 0.1 E 13 15 7 8 - - 0.0
21/12:10am 15.2 14.4 15.0 99 0.1 E 13 17 7 9 - - 0.0
21/12:00am 15.3 14.5 15.1 99 0.1 E 13 15 7 8 - - 0.0
 
Date/Time
EST
Temp
°C
App
Temp
°C
Dew
Point
°C
Rel
Hum
%
Delta-T
°C
Wind Press
QNH
hPa
Press
MSL
hPa
Rain since
9am
mm
Dir  Spd
km/h
Gust
km/h
Spd
kts
Gust
kts
20/11:50pm 15.2 14.7 15.0 99 0.1 E 11 13 6 7 - - 0.0
20/11:40pm 15.2 14.7 15.0 99 0.1 E 11 15 6 8 - - 0.0
20/11:30pm 15.2 15.1 14.9 98 0.2 E 9 15 5 8 - - 0.0
20/11:20pm 15.2 15.5 15.0 99 0.1 ENE 7 11 4 6 - - 0.0
20/11:10pm 15.3 15.3 15.1 99 0.1 E 9 11 5 6 - - 0.0
20/11:00pm 15.3 15.6 15.1 99 0.1 E 7 11 4 6 - - 0.0
20/10:50pm 15.3 15.2 15.0 98 0.2 ESE 9 15 5 8 - - 0.0
20/10:40pm 15.2 15.1 15.0 99 0.1 E 9 13 5 7 - - 0.0
20/10:30pm 15.3 14.8 15.0 98 0.2 ESE 11 15 6 8 - - 0.0
20/10:20pm 15.3 14.8 15.0 98 0.2 E 11 15 6 8 - - 0.0
20/10:10pm 15.3 14.8 15.0 98 0.2 E 11 13 6 7 - - 0.0
20/10:00pm 15.3 14.8 15.0 98 0.2 E 11 13 6 7 - - 0.0
20/09:50pm 15.2 14.7 15.0 99 0.1 E 11 15 6 8 - - 0.0
20/09:40pm 15.2 14.7 14.9 98 0.2 E 11 15 6 8 - - 0.0
20/09:30pm 15.2 14.7 14.9 98 0.2 E 11 13 6 7 - - 0.0
20/09:20pm 15.2 14.3 14.9 98 0.2 E 13 15 7 8 - - 0.0
20/09:10pm 15.2 14.3 14.9 98 0.2 ESE 13 15 7 8 - - 0.0
20/09:00pm 15.3 14.0 14.9 97 0.2 ESE 15 17 8 9 - - 0.0
20/08:50pm 15.2 14.3 14.9 98 0.2 ESE 13 17 7 9 - - 0.0
20/08:40pm 15.2 14.7 14.8 97 0.2 E 11 15 6 8 - - 0.0
20/08:30pm 15.2 14.3 14.8 97 0.2 E 13 15 7 8 - - 0.0
20/08:20pm 15.2 13.9 14.8 97 0.2 E 15 17 8 9 - - 0.0
20/08:10pm 15.3 14.4 14.9 97 0.2 E 13 15 7 8 - - 0.0
20/08:00pm 15.3 14.4 14.8 97 0.3 E 13 15 7 8 - - 0.0
20/07:50pm 15.3 14.4 14.8 97 0.3 E 13 15 7 8 - - 0.0
20/07:40pm 15.3 14.3 14.7 96 0.4 E 13 17 7 9 - - 0.0
20/07:30pm 15.3 14.7 14.7 96 0.4 E 11 17 6 9 - - 0.0
20/07:20pm 15.2 15.0 14.6 96 0.4 E 9 11 5 6 - - 0.0
20/07:10pm 15.1 14.8 14.4 96 0.4 E 9 13 5 7 - - 0.0
20/07:00pm 14.9 13.8 14.2 96 0.4 E 13 15 7 8 - - 0.0
20/06:50pm 14.9 13.7 14.1 95 0.5 E 13 17 7 9 - - 0.0
20/06:40pm 14.9 13.7 14.0 94 0.5 E 13 17 7 9 - - 0.0
20/06:30pm 15.0 13.4 14.0 94 0.6 E 15 17 8 9 - - 0.0
20/06:20pm 15.1 13.1 14.0 93 0.6 E 17 20 9 11 - - 0.0
20/06:10pm 15.2 12.9 14.1 93 0.6 E 19 20 10 11 - - 0.0
20/06:00pm 15.4 13.0 14.4 94 0.6 E 20 26 11 14 - - 0.0
20/05:50pm 15.6 13.2 14.4 93 0.7 E 20 24 11 13 - - 0.0
20/05:40pm 15.7 13.3 14.3 91 0.8 E 20 24 11 13 - - 0.0
20/05:30pm 15.9 14.0 14.1 89 1.0 E 17 22 9 12 - - 0.0
20/05:20pm 16.1 14.2 14.1 88 1.2 E 17 19 9 10 - - 0.0
20/05:10pm 16.3 14.4 14.1 87 1.3 E 17 22 9 12 - - 0.0
20/05:00pm 16.6 15.1 14.2 86 1.4 E 15 19 8 10 - - 0.0
20/04:50pm 16.9 15.3 13.9 82 1.7 E 15 20 8 11 - - 0.0
20/04:40pm 17.1 15.5 13.8 81 1.9 E 15 19 8 10 - - 0.0
20/04:30pm 16.9 15.1 13.4 80 2.0 E 15 20 8 11 - - 0.0
20/04:20pm 16.9 14.8 13.6 81 1.9 E 17 20 9 11 - - 0.0
20/04:10pm 17.2 14.7 13.4 78 2.2 E 19 22 10 12 - - 0.0
20/04:00pm 17.4 14.7 13.0 75 2.5 E 19 20 10 11 - - 0.0
20/03:50pm 17.6 15.5 13.5 77 2.4 E 17 20 9 11 - - 0.0
20/03:40pm 17.6 15.1 13.5 77 2.4 - 19 24 10 13 - - 0.0
20/03:30pm 17.7 14.9 13.2 75 2.6 E 20 24 11 13 - - 0.0
20/03:20pm 18.0 16.2 13.2 73 2.8 ENE 15 20 8 11 - - 0.0
20/03:10pm 18.1 16.4 13.7 75 2.6 ENE 15 19 8 10 - - 0.0
20/03:00pm 18.2 16.0 13.4 73 2.8 E 17 22 9 12 - - 0.0

Other formats

Comma delimited format used in spreadsheet applications
http://www.bom.gov.au/fwo/IDQ60801/IDQ60801.99123.axf

JavaScript Object Notation format (JSON) in row-major order
http://www.bom.gov.au/fwo/IDQ60801/IDQ60801.99123.json

Data quality

Most of these data are generated automatically and are frequently updated. Quality checks on data are not normally performed. It is possible for incorrect values to appear. Refer to information at About Latest Weather Observations and please check the disclaimer before using these data.